Nuiqsut, Alaska
Current Conditions -  °F | °C
As of 3:53 AM on Thursday 30 Oct 2014 (Local Time) from PAQT Reporting Station
Overcast Overcast  
Wind Chill:   Ceiling: 6000
Heat Index: 19°   Visibility: 10mi
Dew Point: 15°   Wind: 13mph
Humidity: 85%   Direction: 220°SW
Pressure: 29.92"   Gusts: NA
Location:  70.22°N, 150.98°W
Report Text: PAQT 301153Z AUTO 22011KT 10SM FEW032 OVC060 M07/M09 A2992 RMK SLP133 T10721094 11072 21078 50000 TSNO VIA AUTODIAL
Loading
Personal Weather Stations






























Interactive Weather Map
Tropical Storm Tracking
New forecast layout! Learn more

10-Day Weather Forecast

Advertisements
Track Severe Weather on mobile